Time;durP1;ratioP1;P1;durP2;ratioP2;P2;SDS_P1;SDS_P2;PMS_P1;PMS_P2;Temp;Humidity;BMP_temperature;BMP_pressure;BME280_temperature;BME280_humidity;BME280_pressure;Samples;Min_cycle;Max_cycle;Signal;HPM_P1;HPM_P2
2022/01/31 00:00:56;;;;;;;8.90;4.27;;;;;;;5.81;49.24;94375.97;5025247;28;20208;-71
2022/01/31 00:03:22;;;;;;;14.07;2.60;;;;;;;5.43;50.08;94380.25;5009337;28;20184;-72
2022/01/31 00:05:48;;;;;;;17.53;4.70;;;;;;;5.31;51.00;94386.78;5024977;28;20194;-72
2022/01/31 00:08:22;;;;;;;9.77;3.47;;;;;;;5.53;49.92;94380.84;5022244;28;20188;-72
2022/01/31 00:10:48;;;;;;;8.90;2.93;;;;;;;5.72;48.95;94373.63;5026712;28;20442;-72
2022/01/31 00:13:19;;;;;;;4.90;2.90;;;;;;;5.24;50.22;94377.06;5024125;28;20533;-73
2022/01/31 00:15:52;;;;;;;4.27;2.83;;;;;;;5.17;50.30;94376.13;5027660;28;20473;-71
2022/01/31 00:18:18;;;;;;;11.90;3.43;;;;;;;5.57;49.80;94389.09;5026991;28;20453;-72
2022/01/31 00:20:43;;;;;;;6.50;3.87;;;;;;;5.68;49.92;94392.13;5022140;28;20455;-71
2022/01/31 00:23:08;;;;;;;6.37;2.33;;;;;;;5.07;50.75;94385.88;5022433;28;20206;-70
2022/01/31 00:25:34;;;;;;;6.50;3.50;;;;;;;5.61;49.22;94388.56;5033357;28;20203;-71
2022/01/31 00:27:59;;;;;;;3.73;3.20;;;;;;;5.48;49.27;94383.94;5024357;28;20219;-72
2022/01/31 00:30:25;;;;;;;11.33;3.80;;;;;;;5.59;48.91;94393.13;5025079;28;20207;-72
2022/01/31 00:32:50;;;;;;;6.53;3.60;;;;;;;5.25;49.79;94402.03;5021873;28;20188;-71
2022/01/31 00:35:16;;;;;;;3.57;2.40;;;;;;;5.60;49.28;94392.16;5024876;28;20323;-72
2022/01/31 00:37:42;;;;;;;9.50;3.73;;;;;;;5.73;49.24;94404.59;5020097;28;20209;-72
2022/01/31 00:40:09;;;;;;;16.53;5.27;;;;;;;5.70;49.20;94410.13;5011095;28;20442;-72
2022/01/31 00:42:35;;;;;;;10.50;3.77;;;;;;;5.55;49.97;94393.66;5024373;28;20670;-71
2022/01/31 00:45:15;;;;;;;9.80;3.93;;;;;;;5.18;50.62;94408.03;5024785;28;20485;-72
2022/01/31 00:47:45;;;;;;;12.20;3.53;;;;;;;5.64;50.16;94408.22;5006762;28;20416;-71
2022/01/31 00:50:12;;;;;;;4.73;2.53;;;;;;;5.57;49.19;94415.06;5017401;28;20445;-72
2022/01/31 00:52:43;;;;;;;9.47;2.73;;;;;;;5.37;49.90;94419.81;5025918;28;20426;-72
2022/01/31 00:55:12;;;;;;;14.17;3.30;;;;;;;5.36;49.99;94411.22;5024751;28;20439;-72
2022/01/31 00:57:37;;;;;;;9.47;2.50;;;;;;;5.06;50.13;94405.00;5023745;28;20988;-71
2022/01/31 01:00:05;;;;;;;8.07;2.90;;;;;;;5.47;48.79;94415.25;5024938;28;20582;-71
2022/01/31 01:02:30;;;;;;;9.93;2.70;;;;;;;5.23;48.98;94416.94;5022141;28;20191;-71
2022/01/31 01:04:56;;;;;;;12.87;3.17;;;;;;;5.79;47.99;94413.50;5007962;28;20464;-72
2022/01/31 01:07:21;;;;;;;6.77;2.43;;;;;;;5.52;48.83;94405.19;5016661;28;20180;-71
2022/01/31 01:09:47;;;;;;;6.73;3.10;;;;;;;5.74;48.24;94421.78;5024379;28;20612;-71
2022/01/31 01:12:16;;;;;;;6.33;2.20;;;;;;;5.77;47.94;94416.25;5008633;28;20189;-72
2022/01/31 01:14:42;;;;;;;4.03;2.23;;;;;;;5.34;48.96;94402.81;5026115;28;20525;-72
2022/01/31 01:17:08;;;;;;;6.07;1.70;;;;;;;5.69;47.64;94418.88;5024225;28;20470;-71
2022/01/31 01:19:33;;;;;;;8.60;2.90;;;;;;;5.37;48.62;94412.03;5024452;28;20759;-71
2022/01/31 01:21:59;;;;;;;5.13;2.17;;;;;;;5.64;47.98;94418.59;5030653;28;20191;-72
2022/01/31 01:24:25;;;;;;;10.73;3.57;;;;;;;5.67;47.93;94410.44;5044043;28;20191;-72
2022/01/31 01:26:50;;;;;;;7.63;3.07;;;;;;;5.19;48.67;94405.28;5032705;28;20472;-72
2022/01/31 01:29:16;;;;;;;8.60;2.40;;;;;;;5.48;48.51;94409.06;5006790;28;20225;-71
2022/01/31 01:31:46;;;;;;;8.10;3.50;;;;;;;5.87;48.02;94408.25;5009471;28;20191;-71
2022/01/31 01:34:12;;;;;;;13.70;3.50;;;;;;;6.12;47.29;94406.34;5024330;28;20442;-72
2022/01/31 01:36:38;;;;;;;8.93;2.67;;;;;;;5.68;48.79;94402.50;5024031;28;20454;-72
2022/01/31 01:39:05;;;;;;;4.77;2.90;;;;;;;5.71;49.40;94400.53;4998014;28;20263;-74
2022/01/31 01:41:30;;;;;;;11.73;3.83;;;;;;;5.76;49.06;94401.63;5009385;28;20426;-72
2022/01/31 01:43:56;;;;;;;5.07;3.40;;;;;;;5.74;49.10;94402.81;5006294;28;20564;-72
2022/01/31 01:46:22;;;;;;;5.07;4.23;;;;;;;5.92;48.76;94403.34;5023082;28;20242;-71
2022/01/31 01:48:47;;;;;;;6.07;2.10;;;;;;;5.37;48.81;94401.66;4990209;28;20444;-72
2022/01/31 01:51:13;;;;;;;2.37;2.10;;;;;;;5.74;48.75;94397.59;5004432;28;20216;-72
2022/01/31 01:53:39;;;;;;;8.33;2.70;;;;;;;5.84;47.66;94391.22;5004406;28;20185;-72
2022/01/31 01:56:05;;;;;;;9.10;3.50;;;;;;;5.63;48.82;94404.81;5004777;28;20432;-71
2022/01/31 01:58:38;;;;;;;5.00;2.47;;;;;;;5.38;49.99;94403.28;5022938;28;20192;-72
2022/01/31 02:01:04;;;;;;;5.23;2.87;;;;;;;5.58;49.81;94404.50;5006050;28;20408;-72
2022/01/31 02:03:31;;;;;;;8.60;3.03;;;;;;;5.13;50.62;94399.97;5020736;28;20459;-71
2022/01/31 02:05:58;;;;;;;10.73;3.63;;;;;;;5.16;50.46;94405.63;5015652;28;20191;-71
2022/01/31 02:08:25;;;;;;;7.10;3.17;;;;;;;5.41;49.88;94403.75;5027898;28;20398;-73
2022/01/31 02:10:51;;;;;;;11.77;3.30;;;;;;;5.32;50.19;94399.56;5027527;28;20415;-72
2022/01/31 02:13:18;;;;;;;5.70;3.00;;;;;;;5.81;48.99;94393.34;5011676;28;20437;-72
2022/01/31 02:15:48;;;;;;;3.47;3.00;;;;;;;5.11;51.02;94394.94;5024809;28;20189;-72
2022/01/31 02:18:15;;;;;;;7.93;3.03;;;;;;;5.47;49.79;94399.69;5018743;28;20447;-72
2022/01/31 02:20:42;;;;;;;7.27;2.87;;;;;;;5.55;49.18;94399.63;5027578;28;20419;-71
2022/01/31 02:23:09;;;;;;;7.63;2.77;;;;;;;5.29;49.58;94405.09;5014044;28;20446;-71
2022/01/31 02:25:53;;;;;;;9.07;2.97;;;;;;;5.44;48.85;94402.59;5034535;28;20448;-72
2022/01/31 02:28:21;;;;;;;6.93;2.80;;;;;;;5.41;48.63;94398.56;5027205;28;20458;-71
2022/01/31 02:30:46;;;;;;;5.27;2.40;;;;;;;5.38;47.64;94396.31;5027331;28;20483;-71
2022/01/31 02:33:12;;;;;;;2.53;2.17;;;;;;;5.61;47.95;94393.75;5028400;28;20450;-71
2022/01/31 02:35:37;;;;;;;6.30;2.20;;;;;;;5.62;46.63;94395.41;5027098;28;20254;-72
2022/01/31 02:38:03;;;;;;;12.30;2.53;;;;;;;5.44;47.87;94407.78;5019746;28;20204;-70
2022/01/31 02:40:29;;;;;;;10.07;3.23;;;;;;;5.38;48.45;94404.09;5026706;28;20195;-71
2022/01/31 02:42:55;;;;;;;5.57;2.40;;;;;;;5.43;48.51;94406.19;5026944;28;20184;-71
2022/01/31 02:45:20;;;;;;;6.70;3.03;;;;;;;5.31;48.80;94417.91;5027140;28;20435;-72
2022/01/31 02:47:52;;;;;;;7.63;3.00;;;;;;;5.31;48.79;94402.34;5011539;28;20188;-71
2022/01/31 02:50:18;;;;;;;6.73;2.37;;;;;;;5.49;48.61;94405.50;5013192;28;20184;-71
2022/01/31 02:52:48;;;;;;;7.00;2.63;;;;;;;5.47;48.76;94413.47;5026829;28;20940;-70
2022/01/31 02:55:15;;;;;;;6.37;2.70;;;;;;;5.52;48.65;94410.38;5009250;28;20435;-72
2022/01/31 02:57:40;;;;;;;4.93;1.50;;;;;;;5.45;47.30;94425.00;5026315;28;20492;-71
2022/01/31 03:00:07;;;;;;;11.27;2.50;;;;;;;5.01;48.28;94397.72;5028936;28;20449;-72
2022/01/31 03:02:32;;;;;;;6.70;2.17;;;;;;;5.41;46.86;94413.34;5028802;28;20286;-72
2022/01/31 03:04:57;;;;;;;5.33;2.10;;;;;;;5.31;47.62;94412.72;5026509;28;21378;-71
2022/01/31 03:07:23;;;;;;;14.70;2.10;;;;;;;5.16;49.25;94404.81;5025922;28;20215;-71
2022/01/31 03:09:48;;;;;;;6.87;2.10;;;;;;;5.11;49.42;94415.69;5025045;28;20256;-72
2022/01/31 03:12:14;;;;;;;4.23;2.40;;;;;;;5.15;49.29;94411.78;5025395;28;20204;-72
2022/01/31 03:14:42;;;;;;;9.50;2.97;;;;;;;5.44;49.43;94415.59;5025564;28;20196;-71
2022/01/31 03:17:08;;;;;;;6.63;2.60;;;;;;;5.21;49.95;94418.09;5010668;28;20522;-72
2022/01/31 03:19:38;;;;;;;14.77;3.60;;;;;;;5.32;49.79;94422.94;5045177;28;20429;-72
2022/01/31 03:22:06;;;;;;;3.70;1.97;;;;;;;4.98;50.39;94413.63;5042346;28;20414;-72
2022/01/31 03:24:32;;;;;;;5.67;2.80;;;;;;;5.39;49.05;94415.28;5026534;28;20433;-72
2022/01/31 03:26:58;;;;;;;7.40;2.53;;;;;;;5.04;49.75;94406.97;5034281;28;20516;-71
2022/01/31 03:29:24;;;;;;;13.67;2.60;;;;;;;5.08;49.09;94403.06;5046368;28;20913;-71
2022/01/31 03:31:49;;;;;;;5.10;2.30;;;;;;;5.34;47.45;94396.81;5035067;28;20188;-71
2022/01/31 03:34:15;;;;;;;4.50;2.27;;;;;;;5.02;48.27;94395.94;5031499;28;20192;-71
2022/01/31 03:36:42;;;;;;;6.60;2.90;;;;;;;4.81;48.57;94386.91;5021255;28;20201;-72
2022/01/31 03:39:08;;;;;;;3.20;1.90;;;;;;;4.71;48.08;94383.69;5009201;28;20265;-71
2022/01/31 03:41:34;;;;;;;6.43;1.83;;;;;;;5.49;47.24;94395.13;5025920;28;20502;-72
2022/01/31 03:43:59;;;;;;;2.20;1.73;;;;;;;5.00;48.26;94400.50;5006558;28;20215;-72
2022/01/31 03:46:25;;;;;;;4.73;2.23;;;;;;;5.51;47.00;94408.75;5034943;28;20207;-71
2022/01/31 03:48:50;;;;;;;10.70;2.70;;;;;;;5.47;47.70;94410.06;5025563;28;20624;-72
2022/01/31 03:51:16;;;;;;;6.30;2.30;;;;;;;5.39;48.03;94403.13;5005706;28;20200;-72
2022/01/31 03:53:41;;;;;;;5.00;3.30;;;;;;;5.52;47.71;94400.00;5006019;28;20192;-72
2022/01/31 03:56:07;;;;;;;4.80;2.93;;;;;;;5.28;47.88;94406.88;5022434;28;20184;-72
2022/01/31 03:58:32;;;;;;;2.47;2.27;;;;;;;5.24;48.15;94407.41;5025610;28;20560;-71
2022/01/31 04:00:58;;;;;;;4.90;1.70;;;;;;;5.01;49.01;94405.50;5022028;28;20181;-71
2022/01/31 04:03:23;;;;;;;3.03;2.73;;;;;;;5.08;48.63;94405.66;5013368;28;20189;-71
2022/01/31 04:05:49;;;;;;;10.63;3.20;;;;;;;4.84;48.34;94390.97;5006313;28;20258;-72
2022/01/31 04:08:14;;;;;;;4.70;2.40;;;;;;;5.21;47.68;94402.53;5036449;28;20188;-71
2022/01/31 04:10:40;;;;;;;2.40;1.40;;;;;;;5.33;47.15;94406.41;5025651;28;20195;-71
2022/01/31 04:13:06;;;;;;;5.20;3.23;;;;;;;5.34;47.27;94413.19;5034969;28;20650;-72
2022/01/31 04:15:33;;;;;;;5.07;2.47;;;;;;;5.05;48.12;94413.78;5027766;28;20430;-69
2022/01/31 04:17:58;;;;;;;6.27;2.27;;;;;;;5.28;47.55;94414.66;5040025;28;20211;-69
2022/01/31 04:20:24;;;;;;;9.87;1.77;;;;;;;5.10;47.28;94408.88;5023905;28;20435;-71
2022/01/31 04:23:00;;;;;;;5.00;2.10;;;;;;;5.12;47.63;94429.47;5039676;28;20187;-71
2022/01/31 04:25:42;;;;;;;1.73;1.63;;;;;;;4.72;48.66;94420.78;5042013;28;20183;-71
2022/01/31 04:28:19;;;;;;;2.70;2.20;;;;;;;4.58;49.29;94409.31;5006769;28;20472;-71
2022/01/31 04:30:53;;;;;;;10.20;2.83;;;;;;;5.03;48.74;94413.94;5002914;28;20439;-72
2022/01/31 04:33:20;;;;;;;8.37;1.97;;;;;;;4.46;49.24;94399.28;5005883;28;21019;-71
2022/01/31 04:35:46;;;;;;;4.53;1.60;;;;;;;4.62;49.56;94408.00;5005762;28;20412;-72
2022/01/31 04:38:11;;;;;;;10.73;3.47;;;;;;;4.43;50.02;94403.97;5033437;28;20481;-71
2022/01/31 04:40:38;;;;;;;11.20;2.53;;;;;;;4.45;50.55;94402.81;5032955;28;20203;-72
2022/01/31 04:43:03;;;;;;;2.10;1.83;;;;;;;4.62;49.81;94408.81;5026725;28;20454;-72
2022/01/31 04:45:29;;;;;;;3.57;2.30;;;;;;;4.71;50.18;94404.44;5025217;28;20290;-72
2022/01/31 04:47:54;;;;;;;10.57;3.07;;;;;;;5.05;49.70;94399.00;5021572;28;20638;-72
2022/01/31 04:50:20;;;;;;;6.00;3.80;;;;;;;4.74;50.35;94395.50;5027325;28;20219;-71
2022/01/31 04:52:46;;;;;;;9.93;2.93;;;;;;;4.83;49.52;94384.97;5024849;28;20208;-72
2022/01/31 04:55:12;;;;;;;7.73;2.97;;;;;;;4.16;51.17;94390.38;5010698;28;20231;-72
2022/01/31 04:57:37;;;;;;;4.10;2.10;;;;;;;4.29;51.10;94384.72;5024432;28;20203;-73
2022/01/31 05:00:08;;;;;;;4.07;3.30;;;;;;;4.04;51.61;94379.53;5023176;28;20971;-72
2022/01/31 05:02:35;;;;;;;3.67;3.33;;;;;;;4.34;50.73;94387.59;5005634;28;20454;-72
2022/01/31 05:05:01;;;;;;;4.73;2.60;;;;;;;4.42;50.51;94397.16;5024988;28;20984;-72
2022/01/31 05:07:26;;;;;;;7.83;3.20;;;;;;;4.33;50.92;94396.38;5007139;28;20423;-71
2022/01/31 05:09:52;;;;;;;7.33;3.00;;;;;;;4.23;50.90;94385.34;5006947;28;20458;-72
2022/01/31 05:12:18;;;;;;;3.70;3.13;;;;;;;4.70;49.98;94392.44;5023322;28;20203;-72
2022/01/31 05:14:43;;;;;;;4.30;2.87;;;;;;;4.24;51.26;94389.56;5024401;28;20274;-71
2022/01/31 05:17:09;;;;;;;8.17;2.70;;;;;;;3.85;51.64;94383.22;5031632;28;20218;-71
2022/01/31 05:19:34;;;;;;;9.60;2.53;;;;;;;4.14;50.94;94389.72;5029023;28;20206;-73
2022/01/31 05:22:00;;;;;;;11.03;3.33;;;;;;;4.00;51.33;94393.72;5023512;28;20271;-71
2022/01/31 05:24:27;;;;;;;5.77;2.90;;;;;;;4.14;51.68;94401.88;5024520;28;20200;-71
2022/01/31 05:26:53;;;;;;;5.63;2.87;;;;;;;4.65;50.01;94397.31;5024218;28;20298;-71
2022/01/31 05:29:20;;;;;;;4.53;2.73;;;;;;;4.28;51.13;94390.84;5024080;28;20483;-72
2022/01/31 05:31:46;;;;;;;7.70;2.83;;;;;;;4.39;50.73;94387.13;5005942;28;20454;-71
2022/01/31 05:34:12;;;;;;;3.23;2.37;;;;;;;4.40;51.02;94392.16;5024543;28;20496;-71
2022/01/31 05:36:42;;;;;;;2.67;2.47;;;;;;;3.93;51.68;94392.78;5006222;28;20463;-71
2022/01/31 05:39:08;;;;;;;8.60;2.70;;;;;;;4.07;51.47;94392.13;5020783;28;20442;-71
2022/01/31 05:41:34;;;;;;;7.07;2.60;;;;;;;4.32;51.40;94394.72;5030967;28;20462;-72
2022/01/31 05:43:59;;;;;;;2.83;2.60;;;;;;;4.44;50.83;94390.84;5030969;28;20442;-71
2022/01/31 05:46:25;;;;;;;7.73;2.37;;;;;;;4.81;49.82;94393.88;5013067;28;20411;-72
2022/01/31 05:48:51;;;;;;;4.20;2.00;;;;;;;4.54;49.89;94398.47;5030338;28;20196;-72
2022/01/31 05:51:21;;;;;;;5.67;2.60;;;;;;;4.20;51.07;94388.28;5027303;28;20181;-72
2022/01/31 05:53:49;;;;;;;8.43;2.50;;;;;;;4.18;50.70;94401.38;5028832;28;20455;-70
2022/01/31 05:56:16;;;;;;;4.53;3.47;;;;;;;4.47;50.17;94393.09;5005046;28;20799;-72
2022/01/31 05:58:43;;;;;;;6.10;3.30;;;;;;;4.49;50.33;94400.72;5030681;28;20506;-72
2022/01/31 06:01:08;;;;;;;3.80;2.47;;;;;;;4.39;50.77;94381.94;5030612;28;20442;-72
2022/01/31 06:03:40;;;;;;;2.73;2.53;;;;;;;4.53;50.18;94390.84;5032468;28;20434;-72
2022/01/31 06:06:06;;;;;;;3.47;3.00;;;;;;;4.38;49.63;94391.53;5030815;28;20175;-71
2022/01/31 06:08:31;;;;;;;7.37;3.77;;;;;;;4.48;50.07;94399.91;5030630;28;20461;-72
2022/01/31 06:10:57;;;;;;;9.83;2.90;;;;;;;4.29;50.99;94408.81;5012975;28;20234;-72
2022/01/31 06:13:29;;;;;;;8.27;2.90;;;;;;;4.56;49.41;94399.09;5031756;28;20259;-73
2022/01/31 06:15:55;;;;;;;4.83;3.40;;;;;;;4.77;49.06;94406.38;5016981;28;20473;-73
2022/01/31 06:18:20;;;;;;;8.43;3.50;;;;;;;4.69;49.20;94399.41;5035594;28;20509;-72
2022/01/31 06:20:46;;;;;;;6.53;3.80;;;;;;;4.92;47.87;94411.69;5029857;28;20183;-73
2022/01/31 06:23:12;;;;;;;9.73;3.30;;;;;;;4.85;48.34;94414.13;5002217;28;20764;-72
2022/01/31 06:25:38;;;;;;;4.63;2.40;;;;;;;4.72;48.11;94421.59;5030487;28;20431;-72
2022/01/31 06:28:06;;;;;;;7.20;3.07;;;;;;;4.38;49.41;94403.63;5027825;28;20494;-71
2022/01/31 06:30:32;;;;;;;7.53;2.83;;;;;;;4.53;48.99;94408.97;5028824;28;20505;-72
2022/01/31 06:32:58;;;;;;;8.17;2.93;;;;;;;5.02;47.58;94406.31;5023226;28;20415;-73
2022/01/31 06:35:24;;;;;;;17.20;3.63;;;;;;;4.89;47.82;94406.81;5029406;28;21164;-71
2022/01/31 06:37:53;;;;;;;13.03;3.33;;;;;;;5.12;46.93;94395.75;5029189;28;20209;-72
2022/01/31 06:40:19;;;;;;;6.33;4.07;;;;;;;4.70;47.51;94389.84;5032763;28;20445;-71
2022/01/31 06:42:44;;;;;;;8.40;4.90;;;;;;;4.81;47.33;94384.31;5024248;28;20435;-71
2022/01/31 06:45:10;;;;;;;9.53;5.20;;;;;;;4.81;47.08;94365.38;5043449;28;20462;-72
2022/01/31 06:47:36;;;;;;;15.67;5.00;;;;;;;4.75;47.53;94368.63;5006186;28;20191;-71
2022/01/31 06:50:04;;;;;;;14.93;4.73;;;;;;;4.85;46.92;94340.72;5026434;28;20195;-71
2022/01/31 06:52:34;;;;;;;6.57;4.00;;;;;;;4.58;47.57;94354.91;5029112;28;20426;-71
2022/01/31 06:55:03;;;;;;;21.60;8.13;;;;;;;4.55;47.43;94355.22;5039050;28;20513;-71
2022/01/31 06:57:33;;;;;;;8.07;6.70;;;;;;;5.09;46.65;94364.00;5026332;28;20458;-71
2022/01/31 07:00:06;;;;;;;6.40;3.80;;;;;;;4.66;46.80;94342.72;5025824;28;20446;-71
2022/01/31 07:02:32;;;;;;;10.90;5.50;;;;;;;5.00;46.58;94353.81;5013658;28;20434;-71
2022/01/31 07:05:00;;;;;;;7.37;4.57;;;;;;;4.84;47.05;94358.06;5027039;28;20431;-71
2022/01/31 07:07:27;;;;;;;9.77;4.03;;;;;;;4.67;46.83;94343.53;5022389;28;20417;-72
2022/01/31 07:09:52;;;;;;;6.63;3.70;;;;;;;4.97;46.47;94343.78;5001946;28;20468;-72
2022/01/31 07:12:18;;;;;;;10.70;5.43;;;;;;;5.32;45.40;94339.09;5026904;28;20426;-71
2022/01/31 07:14:43;;;;;;;8.10;4.23;;;;;;;4.90;45.83;94359.19;5026599;28;20203;-72
2022/01/31 07:17:09;;;;;;;9.17;5.67;;;;;;;5.02;46.32;94362.22;5004208;28;20291;-71
2022/01/31 07:19:38;;;;;;;26.63;6.00;;;;;;;4.82;46.86;94354.03;5025747;28;20223;-71
2022/01/31 07:22:07;;;;;;;17.13;3.80;;;;;;;5.09;45.86;94364.00;5021926;28;20181;-71
2022/01/31 07:27:02;;;;;;;14.87;3.77;;;;;;;5.19;44.97;94357.81;5034663;28;20470;-73
2022/01/31 07:29:29;;;;;;;9.40;3.40;;;;;;;5.61;44.52;94349.63;5026275;28;20450;-72
2022/01/31 07:31:55;;;;;;;12.00;4.20;;;;;;;5.70;44.63;94334.03;5025345;28;20437;-73
2022/01/31 07:34:21;;;;;;;8.30;4.40;;;;;;;5.58;44.54;94321.47;5013270;28;20430;-73
2022/01/31 07:36:47;;;;;;;18.73;6.50;;;;;;;5.43;44.76;94328.34;5038500;28;20453;-73
2022/01/31 07:39:13;;;;;;;10.90;4.77;;;;;;;4.93;46.36;94316.56;5026342;28;20466;-72
2022/01/31 07:41:39;;;;;;;5.23;3.67;;;;;;;5.12;45.27;94294.59;5002168;28;20181;-72
2022/01/31 07:44:06;;;;;;;10.97;3.60;;;;;;;4.86;46.02;94312.06;5025903;28;20442;-72
2022/01/31 07:46:31;;;;;;;13.40;4.97;;;;;;;5.27;44.54;94311.91;5024634;28;20435;-72
2022/01/31 07:48:57;;;;;;;11.27;4.27;;;;;;;5.14;45.40;94305.63;5025781;28;20493;-71
2022/01/31 07:51:23;;;;;;;12.23;5.90;;;;;;;5.61;44.65;94326.28;5023945;28;20183;-71
2022/01/31 07:53:48;;;;;;;18.30;5.00;;;;;;;5.40;44.67;94326.09;5025667;28;20801;-71
2022/01/31 07:56:15;;;;;;;12.60;4.80;;;;;;;5.34;44.81;94321.59;4999580;28;20203;-71
2022/01/31 07:58:41;;;;;;;22.70;6.80;;;;;;;5.87;43.37;94325.97;5024243;28;20235;-72
2022/01/31 08:01:07;;;;;;;20.20;6.67;;;;;;;5.76;43.29;94320.38;5024438;28;20435;-72
2022/01/31 08:03:33;;;;;;;9.63;3.63;;;;;;;6.12;42.50;94314.63;5038585;28;20423;-72
2022/01/31 08:05:59;;;;;;;14.50;5.77;;;;;;;5.77;42.98;94314.22;5025277;28;20485;-72
2022/01/31 08:08:27;;;;;;;14.40;3.80;;;;;;;5.48;43.22;94306.09;5038903;28;20411;-72
2022/01/31 08:10:53;;;;;;;6.40;3.73;;;;;;;5.93;42.91;94308.88;5025136;28;20185;-72
2022/01/31 08:13:18;;;;;;;8.53;2.13;;;;;;;6.13;41.72;94303.22;5024051;28;20445;-72
2022/01/31 08:15:59;;;;;;;5.57;2.50;;;;;;;5.84;42.25;94308.16;5025033;28;20188;-71
2022/01/31 08:18:25;;;;;;;21.53;7.67;;;;;;;6.22;42.06;94297.81;5017491;28;20207;-72
2022/01/31 08:20:50;;;;;;;6.20;3.60;;;;;;;6.31;41.38;94295.94;5028515;28;20418;-73
2022/01/31 08:23:15;;;;;;;13.47;6.70;;;;;;;5.89;42.15;94275.66;5015860;28;20183;-73
2022/01/31 08:25:47;;;;;;;10.33;4.40;;;;;;;5.80;42.08;94293.06;5020947;28;20184;-72
2022/01/31 08:28:12;;;;;;;26.27;6.00;;;;;;;5.43;42.65;94271.28;5022923;28;20294;-72
2022/01/31 08:31:06;;;;;;;8.43;4.10;;;;;;;5.70;42.53;94284.72;5021569;28;20455;-73
2022/01/31 08:33:42;;;;;;;8.67;4.93;;;;;;;6.07;41.65;94281.38;5021427;28;20183;-72
2022/01/31 08:36:08;;;;;;;7.67;4.27;;;;;;;5.67;42.99;94281.50;5023785;28;20423;-72
2022/01/31 08:38:35;;;;;;;17.27;4.20;;;;;;;5.88;42.44;94280.06;5001162;28;20470;-73
2022/01/31 08:41:01;;;;;;;13.30;3.67;;;;;;;6.09;41.94;94276.00;5021486;28;20478;-73
2022/01/31 08:43:27;;;;;;;21.80;5.47;;;;;;;5.33;42.70;94286.22;5021909;28;20434;-72
2022/01/31 08:45:56;;;;;;;10.33;4.23;;;;;;;5.73;42.43;94285.19;5023646;28;20453;-72
2022/01/31 08:48:23;;;;;;;6.40;2.30;;;;;;;5.46;42.25;94269.16;5026486;28;20457;-72
2022/01/31 08:50:49;;;;;;;12.30;5.10;;;;;;;5.93;42.47;94282.09;5021944;28;20435;-72
2022/01/31 08:53:14;;;;;;;6.10;5.00;;;;;;;5.57;42.55;94270.50;5022692;28;20411;-73
2022/01/31 08:55:52;;;;;;;12.47;5.10;;;;;;;6.12;42.00;94280.84;5025858;28;20423;-72
2022/01/31 08:58:18;;;;;;;17.47;7.97;;;;;;;6.31;41.68;94295.13;5022353;28;20215;-71
2022/01/31 09:00:59;;;;;;;13.47;4.33;;;;;;;6.59;40.49;94284.94;5022809;28;20493;-72
2022/01/31 09:06:04;;;;;;;11.80;5.43;;;;;;;6.99;40.22;94282.88;5021518;28;20461;-71
2022/01/31 09:08:30;;;;;;;18.73;4.93;;;;;;;6.44;40.48;94272.75;5021688;28;20434;-72
2022/01/31 09:10:55;;;;;;;12.80;4.43;;;;;;;6.65;39.71;94273.81;5028620;28;20426;-72
2022/01/31 09:13:21;;;;;;;9.57;5.10;;;;;;;7.20;39.26;94269.13;4999107;28;20423;-72
2022/01/31 09:15:46;;;;;;;8.83;4.10;;;;;;;7.12;38.14;94267.44;5027402;28;20176;-72
2022/01/31 09:18:12;;;;;;;7.13;3.50;;;;;;;7.70;37.68;94269.25;5023376;28;20208;-72
2022/01/31 09:20:38;;;;;;;14.20;6.27;;;;;;;8.47;35.91;94265.09;5023493;28;20184;-72
2022/01/31 09:23:04;;;;;;;12.23;4.30;;;;;;;8.26;36.11;94265.91;5026666;28;20191;-72
2022/01/31 09:25:30;;;;;;;10.13;4.63;;;;;;;8.67;35.77;94263.41;5025285;28;20484;-72
2022/01/31 09:27:57;;;;;;;10.10;4.10;;;;;;;8.38;36.51;94251.34;5024540;28;20533;-72
2022/01/31 09:30:23;;;;;;;9.80;3.10;;;;;;;8.43;35.60;94253.44;5005423;28;20188;-72
2022/01/31 09:32:49;;;;;;;15.80;3.67;;;;;;;8.05;36.19;94238.91;5023562;28;20449;-72
2022/01/31 09:35:14;;;;;;;27.40;7.43;;;;;;;7.72;37.17;94233.41;5022666;28;20215;-72
2022/01/31 09:37:40;;;;;;;15.80;4.03;;;;;;;8.21;36.41;94232.59;5025790;28;20456;-72
2022/01/31 09:40:06;;;;;;;7.00;2.93;;;;;;;8.23;36.27;94227.19;5006510;28;20207;-72
2022/01/31 09:42:41;;;;;;;6.73;3.20;;;;;;;8.34;36.52;94224.84;5019836;28;20652;-72
2022/01/31 09:50:19;;;;;;;22.33;3.73;;;;;;;8.87;34.60;94205.31;5017479;28;20438;-72
2022/01/31 09:52:45;;;;;;;6.83;2.90;;;;;;;9.14;35.34;94199.22;5020316;28;20435;-72
2022/01/31 09:55:12;;;;;;;7.23;3.00;;;;;;;10.00;33.03;94192.47;4998696;28;20260;-72
2022/01/31 09:57:37;;;;;;;9.37;3.40;;;;;;;10.60;32.47;94170.69;5022435;28;20441;-71
2022/01/31 10:00:05;;;;;;;13.10;3.00;;;;;;;9.92;33.52;94182.22;5002877;28;20470;-71
2022/01/31 10:02:30;;;;;;;12.07;3.40;;;;;;;9.13;33.50;94178.50;5020991;28;20180;-71
2022/01/31 10:04:56;;;;;;;3.77;2.60;;;;;;;8.96;34.15;94167.63;5022861;28;20486;-71
2022/01/31 10:07:21;;;;;;;3.37;1.83;;;;;;;7.96;35.74;94165.25;5006804;28;20195;-71
2022/01/31 10:09:48;;;;;;;3.13;1.73;;;;;;;9.04;34.43;94154.38;5022303;28;20184;-71
2022/01/31 10:16:24;;;;;;;5.63;2.27;;;;;;;8.37;34.56;94156.72;5022553;28;20631;-71
2022/01/31 10:17:59;;;;;;;2.53;1.80;;;;;;;8.85;34.72;94142.09;5021712;28;20512;-71
2022/01/31 10:20:31;;;;;;;4.30;2.20;;;;;;;8.33;34.19;94132.03;5023105;28;20434;-70
2022/01/31 10:23:09;;;;;;;4.93;2.10;;;;;;;8.20;35.82;94121.53;5022072;28;20513;-71
2022/01/31 10:25:35;;;;;;;5.33;2.23;;;;;;;8.23;34.81;94107.31;5024584;28;21105;-71
2022/01/31 10:28:00;;;;;;;2.47;2.10;;;;;;;8.11;34.75;94114.84;5024011;28;20512;-71
2022/01/31 10:30:29;;;;;;;4.20;1.83;;;;;;;8.43;34.12;94110.84;5008592;28;20247;-71
2022/01/31 10:32:57;;;;;;;4.40;1.70;;;;;;;9.10;33.62;94088.34;5025985;28;20196;-71
2022/01/31 10:35:24;;;;;;;6.83;2.73;;;;;;;8.86;34.01;94107.16;5026848;28;20426;-71
2022/01/31 10:37:55;;;;;;;3.90;2.73;;;;;;;9.94;32.32;94093.94;5026445;28;20461;-71
2022/01/31 10:46:05;;;;;;;4.23;3.83;;;;;;;10.73;32.08;94060.72;5031962;28;20432;-70
2022/01/31 10:56:55;;;;;;;3.67;1.50;;;;;;;11.04;30.02;94035.56;5028056;28;20466;-71
2022/01/31 10:59:40;;;;;;;3.43;1.80;;;;;;;11.39;29.46;94028.06;5025261;28;20501;-71
2022/01/31 11:02:14;;;;;;;4.90;1.93;;;;;;;11.08;29.46;94006.16;5019679;28;20420;-72
2022/01/31 11:04:42;;;;;;;3.20;1.47;;;;;;;10.20;30.30;94004.19;5024137;28;20430;-71
2022/01/31 11:07:13;;;;;;;5.33;2.00;;;;;;;9.75;31.37;93998.91;5022773;28;20427;-70
2022/01/31 11:09:42;;;;;;;3.43;2.10;;;;;;;9.91;30.47;93995.88;5023112;28;20461;-71
2022/01/31 11:12:09;;;;;;;4.40;1.87;;;;;;;10.63;29.73;94010.69;5023152;28;20434;-71
2022/01/31 11:14:42;;;;;;;5.90;1.67;;;;;;;9.74;31.34;94011.19;5025896;28;20454;-70
2022/01/31 11:17:10;;;;;;;5.83;2.70;;;;;;;10.37;30.86;94014.22;5025369;28;20932;-71
2022/01/31 11:19:37;;;;;;;11.77;1.77;;;;;;;10.31;30.18;94000.16;5026234;28;20466;-70
2022/01/31 11:22:08;;;;;;;11.43;2.70;;;;;;;10.75;29.18;94001.91;5025929;28;20411;-71
2022/01/31 11:24:44;;;;;;;3.87;2.20;;;;;;;9.65;32.34;93991.50;5025559;28;20431;-71
2022/01/31 11:27:12;;;;;;;8.50;2.40;;;;;;;9.92;30.86;93981.81;5021102;28;20450;-70
2022/01/31 11:29:42;;;;;;;7.70;2.30;;;;;;;10.08;31.09;93993.59;5021044;28;20434;-71
2022/01/31 11:32:08;;;;;;;5.90;2.23;;;;;;;10.83;30.01;93979.13;5022373;28;20469;-70
2022/01/31 11:34:39;;;;;;;8.90;2.33;;;;;;;10.78;30.24;93974.56;5019968;28;20432;-71
2022/01/31 11:37:07;;;;;;;3.60;1.83;;;;;;;10.84;29.70;93954.56;5009030;28;20538;-71
2022/01/31 11:39:33;;;;;;;4.13;1.70;;;;;;;11.45;28.87;93959.06;5025395;28;20441;-70
2022/01/31 11:42:01;;;;;;;4.27;1.90;;;;;;;11.05;29.94;93950.78;5025815;28;20443;-70
2022/01/31 11:44:48;;;;;;;2.37;2.10;;;;;;;10.27;30.30;93947.44;5031130;28;20446;-70
2022/01/31 11:47:19;;;;;;;3.10;2.30;;;;;;;10.35;30.69;93949.06;5011899;28;20423;-70
2022/01/31 11:49:50;;;;;;;2.77;2.00;;;;;;;10.89;30.05;93946.91;5026783;28;20445;-71
2022/01/31 11:52:18;;;;;;;2.97;1.70;;;;;;;11.08;29.60;93943.31;5031244;28;20411;-71
2022/01/31 11:54:59;;;;;;;5.17;3.40;;;;;;;10.56;29.89;93926.97;5028077;28;20439;-71
2022/01/31 11:57:30;;;;;;;5.70;1.83;;;;;;;10.03;30.95;93914.19;5025260;28;20529;-71
2022/01/31 11:59:59;;;;;;;3.83;1.63;;;;;;;11.02;34.03;93904.91;5027222;28;20435;-72
2022/01/31 12:02:29;;;;;;;3.43;2.03;;;;;;;11.28;31.23;93900.41;5021333;28;20947;-72
2022/01/31 12:04:59;;;;;;;3.93;2.20;;;;;;;11.66;30.56;93891.53;5024825;28;20446;-72
2022/01/31 12:07:39;;;;;;;4.70;2.03;;;;;;;12.17;30.22;93889.53;5018494;28;20411;-72